Terminal Aerodrome Forecast
Issued by NWS Corpus Christi, TX

Home | Current Version | Previous Version | Text Only | Print | Product List | Glossary On
Versions: 1 2 3 4 5 6 7 8 9 10 11 12 13 14 15
414
FTUS44 KCRP 021745
TAFCRP
TAF
KCRP 021745Z 0218/0318 09014KT P6SM -RA SCT025 OVC040
      TEMPO 0218/0219 6SM SHRA BR BKN025
     FM021900 11018G24KT 6SM -RA BR BKN025 OVC040
      TEMPO 0219/0223 5SM SHRA BR BKN025 OVC035
     FM030300 14012KT 6SM -RA BR BKN015 OVC100
     FM030800 15010KT 6SM SHRA BR BKN015 OVC100 PROB30 0308/0313 4SM
      TSRA BKN012CB
     FM031400 16014KT P6SM -SHRA BKN020 OVC030=

USA.gov is the U.S. government's official web portal to all federal, state and local government web resources and services.